Time;durP1;ratioP1;P1;durP2;ratioP2;P2;SDS_P1;SDS_P2;PMS_P1;PMS_P2;Temp;Humidity;BMP_temperature;BMP_pressure;BME280_temperature;BME280_humidity;BME280_pressure;Samples;Min_cycle;Max_cycle;Signal;HPM_P1;HPM_P2
2021/05/19 00:00:03;;;;;;;13.13;11.13;;;;;;;9.92;79.43;100653.38;5073686;28;20205;-77
2021/05/19 00:02:29;;;;;;;11.73;9.97;;;;;;;9.89;79.03;100656.19;5073230;28;20202;-77
2021/05/19 00:04:55;;;;;;;14.10;11.03;;;;;;;9.87;79.27;100654.56;5073224;28;20277;-78
2021/05/19 00:07:21;;;;;;;12.83;10.00;;;;;;;9.85;79.33;100657.38;5074273;28;20226;-77
2021/05/19 00:09:47;;;;;;;15.03;11.07;;;;;;;9.84;79.11;100649.47;5072596;28;20287;-77
2021/05/19 00:12:13;;;;;;;12.73;10.20;;;;;;;9.82;79.35;100648.69;5070293;28;20205;-77
2021/05/19 00:14:40;;;;;;;12.70;9.77;;;;;;;9.81;79.32;100652.31;5071166;28;20228;-77
2021/05/19 00:17:06;;;;;;;11.57;10.33;;;;;;;9.80;79.30;100651.44;5066340;28;20209;-77
2021/05/19 00:19:32;;;;;;;10.57;9.43;;;;;;;9.80;79.29;100647.94;5070811;28;20578;-77
2021/05/19 00:21:58;;;;;;;11.70;9.53;;;;;;;9.77;79.39;100648.13;5070129;28;20212;-77
2021/05/19 00:24:24;;;;;;;10.63;9.43;;;;;;;9.75;78.97;100649.06;5070066;28;20234;-77
2021/05/19 00:26:50;;;;;;;12.40;9.57;;;;;;;9.74;79.36;100644.69;5070583;28;20201;-76
2021/05/19 00:29:16;;;;;;;12.17;10.40;;;;;;;9.73;79.49;100653.63;5070390;28;20207;-77
2021/05/19 00:31:44;;;;;;;11.40;10.20;;;;;;;9.72;79.25;100654.56;5070373;28;20213;-77
2021/05/19 00:34:11;;;;;;;11.47;10.27;;;;;;;9.71;79.14;100647.53;5072399;28;20224;-77
2021/05/19 00:36:37;;;;;;;11.53;10.13;;;;;;;9.71;79.51;100646.66;5072336;28;20274;-78
2021/05/19 00:39:04;;;;;;;11.13;9.93;;;;;;;9.71;79.54;100652.84;5071570;28;20208;-78
2021/05/19 00:41:30;;;;;;;10.83;9.60;;;;;;;9.70;79.92;100656.44;5069545;28;20207;-78
2021/05/19 00:44:05;;;;;;;11.73;10.53;;;;;;;9.71;79.69;100652.84;5064953;28;20225;-77
2021/05/19 00:46:31;;;;;;;11.20;10.00;;;;;;;9.71;79.40;100657.31;5072928;28;20204;-77
2021/05/19 00:48:58;;;;;;;12.13;10.23;;;;;;;9.71;79.52;100659.97;5073676;28;20196;-78
2021/05/19 00:51:24;;;;;;;12.03;10.20;;;;;;;9.70;79.89;100653.78;5066978;28;20219;-76
2021/05/19 00:53:52;;;;;;;12.87;10.47;;;;;;;9.69;79.83;100662.72;5069859;28;20250;-76
2021/05/19 00:56:18;;;;;;;10.53;9.33;;;;;;;9.67;79.75;100655.81;5062050;28;21373;-75
2021/05/19 00:58:44;;;;;;;14.30;10.43;;;;;;;9.67;79.30;100656.63;5070155;28;20254;-75
2021/05/19 01:01:10;;;;;;;11.70;10.07;;;;;;;9.65;78.90;100661.22;5071309;28;20571;-77
2021/05/19 01:03:38;;;;;;;12.43;10.47;;;;;;;9.63;79.20;100655.13;5068423;28;20227;-75
2021/05/19 01:06:07;;;;;;;13.43;10.70;;;;;;;9.63;79.31;100662.25;5071787;28;20275;-78
2021/05/19 01:11:18;;;;;;;12.60;9.60;;;;;;;9.60;79.12;100655.28;5073592;28;20216;-76
2021/05/19 01:13:46;;;;;;;12.07;9.93;;;;;;;9.60;79.27;100655.28;5072156;28;20987;-78
2021/05/19 01:16:15;;;;;;;10.97;9.90;;;;;;;9.60;79.86;100659.75;5070109;28;20225;-78
2021/05/19 01:18:42;;;;;;;14.47;11.00;;;;;;;9.58;79.49;100651.88;5073917;28;20207;-79
2021/05/19 01:21:09;;;;;;;12.07;10.27;;;;;;;9.57;79.82;100663.44;5074071;28;20201;-78
2021/05/19 01:23:37;;;;;;;11.53;9.90;;;;;;;9.56;79.73;100651.09;5073632;28;20225;-77
2021/05/19 01:26:05;;;;;;;13.80;10.70;;;;;;;9.56;79.75;100659.06;5073773;28;20616;-77
2021/05/19 01:28:31;;;;;;;11.63;10.43;;;;;;;9.54;79.47;100649.47;5073317;28;20201;-78
2021/05/19 01:30:57;;;;;;;15.53;10.87;;;;;;;9.54;79.46;100655.66;5072429;28;20205;-77
2021/05/19 01:33:23;;;;;;;12.47;10.30;;;;;;;9.55;79.55;100661.81;5073326;28;20220;-77
2021/05/19 01:35:49;;;;;;;11.83;9.97;;;;;;;9.55;79.97;100665.34;5073212;28;20221;-77
2021/05/19 01:38:16;;;;;;;12.70;10.30;;;;;;;9.54;80.33;100660.09;5073405;28;20258;-78
2021/05/19 01:40:43;;;;;;;12.80;10.23;;;;;;;9.56;80.20;100664.41;5070876;28;20207;-77
2021/05/19 01:43:10;;;;;;;12.67;10.70;;;;;;;9.54;80.13;100653.00;5091322;22;20225;-63
2021/05/19 01:45:37;;;;;;;12.00;10.40;;;;;;;9.56;80.02;100661.72;5071621;28;20291;-63
2021/05/19 01:48:04;;;;;;;15.70;10.87;;;;;;;9.56;80.43;100651.09;5069453;28;20205;-62
2021/05/19 01:50:32;;;;;;;13.13;10.80;;;;;;;9.58;80.42;100661.66;5069825;28;20733;-63
2021/05/19 01:53:01;;;;;;;13.30;10.63;;;;;;;9.59;80.76;100663.38;5071547;28;20208;-61
2021/05/19 01:55:27;;;;;;;12.83;10.17;;;;;;;9.60;80.59;100657.09;5071687;28;20606;-61
2021/05/19 01:57:55;;;;;;;15.83;10.47;;;;;;;9.61;80.57;100664.13;5072592;28;20270;-62
2021/05/19 02:00:23;;;;;;;11.93;10.57;;;;;;;9.61;80.88;100670.31;5069863;28;20224;-62
2021/05/19 02:02:55;;;;;;;14.33;10.63;;;;;;;9.63;80.88;100663.09;5062530;28;20682;-61
2021/05/19 02:05:23;;;;;;;13.67;10.77;;;;;;;9.64;80.78;100666.63;5072013;28;20197;-63
2021/05/19 02:07:49;;;;;;;12.83;9.80;;;;;;;9.65;80.94;100666.53;5072008;28;20209;-62
2021/05/19 02:10:16;;;;;;;14.30;10.27;;;;;;;9.65;80.45;100669.19;5071590;28;20236;-58
2021/05/19 02:12:42;;;;;;;13.83;10.93;;;;;;;9.65;80.63;100669.19;5071159;28;20215;-63
2021/05/19 02:15:10;;;;;;;13.87;10.20;;;;;;;9.67;80.90;100664.59;5072409;28;20224;-60
2021/05/19 02:17:36;;;;;;;11.23;10.03;;;;;;;9.68;80.38;100670.78;5066647;28;20674;-64
2021/05/19 02:20:11;;;;;;;11.07;9.67;;;;;;;9.69;80.41;100670.69;5072584;28;20231;-63
2021/05/19 02:22:37;;;;;;;12.93;10.53;;;;;;;9.70;80.38;100677.72;5068840;28;20237;-62
2021/05/19 02:25:05;;;;;;;13.50;10.80;;;;;;;9.69;80.77;100668.03;5071885;28;20204;-62
2021/05/19 02:27:31;;;;;;;11.87;10.27;;;;;;;9.70;80.23;100669.75;5071683;28;20205;-61
2021/05/19 02:29:57;;;;;;;12.67;10.43;;;;;;;9.70;80.56;100669.75;5068749;28;20228;-62
2021/05/19 02:32:27;;;;;;;11.37;9.67;;;;;;;9.72;81.00;100672.31;5070811;28;20208;-62
2021/05/19 02:34:53;;;;;;;12.30;10.30;;;;;;;9.72;80.91;100667.00;5069659;28;20233;-63
2021/05/19 02:37:19;;;;;;;11.90;9.87;;;;;;;9.73;80.85;100666.91;5067964;28;20203;-63
2021/05/19 02:39:46;;;;;;;14.00;10.67;;;;;;;9.71;80.34;100663.47;5071722;28;20594;-61
2021/05/19 02:42:12;;;;;;;11.43;9.50;;;;;;;9.73;80.63;100669.56;5070839;28;20215;-62
2021/05/19 02:44:38;;;;;;;12.50;9.70;;;;;;;9.74;80.81;100670.44;5070178;28;20735;-62
2021/05/19 02:47:04;;;;;;;12.13;9.90;;;;;;;9.74;80.82;100670.44;5071890;28;20209;-61
2021/05/19 02:49:32;;;;;;;11.57;9.90;;;;;;;9.74;80.54;100671.28;5070849;28;20232;-62
2021/05/19 02:51:58;;;;;;;11.67;9.67;;;;;;;9.74;80.50;100676.59;5062579;28;20204;-62
2021/05/19 02:54:24;;;;;;;10.47;8.77;;;;;;;9.73;80.37;100676.69;5070925;28;20208;-63
2021/05/19 02:56:50;;;;;;;10.57;9.47;;;;;;;9.74;80.80;100681.06;5069441;28;20236;-62
2021/05/19 02:59:17;;;;;;;15.00;10.67;;;;;;;9.73;80.82;100682.88;5071330;28;20221;-63
2021/05/19 03:01:43;;;;;;;12.83;10.03;;;;;;;9.73;80.68;100682.88;5069997;28;20209;-63
2021/05/19 03:04:10;;;;;;;13.57;9.77;;;;;;;9.74;80.35;100683.72;5071544;28;20230;-62
2021/05/19 03:06:37;;;;;;;12.27;10.53;;;;;;;9.75;80.58;100696.94;5066283;28;20201;-63
2021/05/19 03:09:04;;;;;;;13.20;9.80;;;;;;;9.75;80.84;100690.75;5070215;28;20224;-63
2021/05/19 03:11:30;;;;;;;13.03;10.20;;;;;;;9.74;80.83;100689.03;5067150;28;20694;-57
2021/05/19 03:13:56;;;;;;;13.53;9.70;;;;;;;9.74;80.97;100692.56;5064915;28;20271;-61
2021/05/19 03:16:22;;;;;;;17.50;11.17;;;;;;;9.75;80.69;100688.09;5070883;28;20221;-63
2021/05/19 03:18:49;;;;;;;16.40;10.57;;;;;;;9.73;80.28;100692.66;5070371;28;20213;-63
2021/05/19 03:21:15;;;;;;;15.10;11.47;;;;;;;9.72;80.86;100689.13;5070312;28;20690;-62
2021/05/19 03:23:41;;;;;;;13.27;10.73;;;;;;;9.73;80.69;100684.66;5069404;28;20577;-61
2021/05/19 03:26:08;;;;;;;12.57;10.00;;;;;;;9.72;81.02;100689.13;5070506;28;20216;-63
2021/05/19 03:28:34;;;;;;;14.57;11.50;;;;;;;9.71;80.85;100692.72;5067087;28;20570;-61
2021/05/19 03:31:00;;;;;;;14.73;11.27;;;;;;;9.71;80.25;100690.06;5064005;28;20215;-64
2021/05/19 03:33:26;;;;;;;12.63;11.30;;;;;;;9.70;80.77;100688.34;5067292;28;20213;-63
2021/05/19 03:35:52;;;;;;;13.77;11.83;;;;;;;9.71;80.79;100691.88;5061845;28;20230;-61
2021/05/19 03:38:18;;;;;;;15.20;12.37;;;;;;;9.69;80.78;100688.44;5068030;28;20205;-62
2021/05/19 03:40:46;;;;;;;18.43;12.63;;;;;;;9.69;80.97;100694.63;5065981;28;20207;-62
2021/05/19 03:43:12;;;;;;;14.50;11.70;;;;;;;9.69;80.89;100696.44;5069126;28;20219;-61
2021/05/19 03:45:38;;;;;;;15.93;12.27;;;;;;;9.68;81.16;100687.59;5070739;28;20278;-61
2021/05/19 03:48:05;;;;;;;14.53;12.03;;;;;;;9.67;80.81;100693.84;5066399;28;20216;-62
2021/05/19 03:50:33;;;;;;;15.03;11.73;;;;;;;9.67;80.92;100693.03;5061774;28;20229;-62
2021/05/19 03:53:00;;;;;;;15.47;12.07;;;;;;;9.66;80.75;100696.63;5068403;28;20204;-61
2021/05/19 03:55:27;;;;;;;16.40;12.37;;;;;;;9.65;81.06;100705.56;5070163;28;20236;-62
2021/05/19 03:57:54;;;;;;;16.17;12.20;;;;;;;9.63;80.76;100702.97;5069842;28;20204;-63
2021/05/19 04:00:23;;;;;;;16.33;13.10;;;;;;;9.62;80.90;100706.59;5069568;28;20228;-63
2021/05/19 04:02:49;;;;;;;16.70;12.30;;;;;;;9.61;81.08;100704.00;5065062;28;20207;-63
2021/05/19 04:05:17;;;;;;;14.47;11.87;;;;;;;9.59;80.45;100700.59;5066625;28;20194;-62
2021/05/19 04:07:43;;;;;;;15.47;12.33;;;;;;;9.55;81.07;100702.56;5069598;28;20212;-63
2021/05/19 04:10:10;;;;;;;14.67;12.50;;;;;;;9.55;80.99;100701.69;5068653;28;20708;-64
2021/05/19 04:12:36;;;;;;;16.07;12.40;;;;;;;9.53;81.28;100706.25;5068714;28;20216;-63
2021/05/19 04:15:04;;;;;;;13.67;12.13;;;;;;;9.52;80.97;100708.06;5068045;28;20232;-63
2021/05/19 04:17:30;;;;;;;16.30;13.20;;;;;;;9.52;81.08;100704.53;5061040;28;20208;-63
2021/05/19 04:19:56;;;;;;;16.43;12.63;;;;;;;9.51;80.95;100709.00;5065467;28;20224;-63
2021/05/19 04:22:22;;;;;;;15.80;13.07;;;;;;;9.52;81.09;100715.16;5066723;28;20213;-64
2021/05/19 04:24:48;;;;;;;19.10;14.30;;;;;;;9.52;81.08;100718.69;5062000;28;20622;-64
2021/05/19 04:27:14;;;;;;;18.67;14.20;;;;;;;9.52;81.24;100715.16;5065312;28;20209;-63
2021/05/19 04:29:40;;;;;;;18.10;14.50;;;;;;;9.52;81.19;100720.50;5067935;28;20233;-64
2021/05/19 04:32:09;;;;;;;17.77;13.37;;;;;;;9.51;81.24;100718.78;5067931;28;20206;-63
2021/05/19 04:34:37;;;;;;;19.43;13.93;;;;;;;9.51;80.70;100724.94;5069989;28;20205;-64
2021/05/19 04:37:03;;;;;;;14.67;12.60;;;;;;;9.49;81.42;100732.19;5064371;28;20236;-63
2021/05/19 04:39:29;;;;;;;15.60;13.17;;;;;;;9.48;81.12;100738.44;5061759;28;20221;-62
2021/05/19 04:41:55;;;;;;;15.27;12.47;;;;;;;9.47;80.94;100742.03;5057524;28;20296;-63
2021/05/19 04:44:21;;;;;;;17.13;13.30;;;;;;;9.46;81.06;100748.31;5055828;28;20713;-65
2021/05/19 04:46:47;;;;;;;18.73;13.23;;;;;;;9.45;81.17;100745.72;5060437;28;20261;-62
2021/05/19 04:49:14;;;;;;;15.57;12.87;;;;;;;9.44;80.89;100749.31;5062852;28;20291;-64
2021/05/19 04:51:41;;;;;;;16.60;12.73;;;;;;;9.43;80.68;100764.44;5054006;28;20564;-61
2021/05/19 04:54:07;;;;;;;16.83;13.30;;;;;;;9.41;80.34;100758.34;5057175;28;20577;-60
2021/05/19 04:56:33;;;;;;;16.70;12.77;;;;;;;9.39;80.56;100752.25;5062033;28;20225;-62
2021/05/19 04:58:59;;;;;;;15.63;13.30;;;;;;;9.37;80.57;100764.75;5056670;28;20702;-62
2021/05/19 05:01:26;;;;;;;17.87;13.93;;;;;;;9.37;80.25;100767.41;5057509;28;20585;-63
2021/05/19 05:03:52;;;;;;;16.63;14.07;;;;;;;9.36;80.43;100784.31;5056967;28;20267;-63
2021/05/19 05:06:18;;;;;;;17.73;14.00;;;;;;;9.34;80.16;100770.25;5062968;28;20216;-62
2021/05/19 05:08:44;;;;;;;16.57;14.00;;;;;;;9.34;80.62;100775.56;5061133;28;20227;-62
2021/05/19 05:11:10;;;;;;;15.90;13.03;;;;;;;9.36;80.63;100771.00;5062151;28;20209;-63
2021/05/19 05:13:36;;;;;;;16.50;13.27;;;;;;;9.37;80.69;100770.94;5058100;28;20684;-63
2021/05/19 05:16:03;;;;;;;15.43;13.03;;;;;;;9.41;80.15;100774.28;5055622;28;20226;-62
2021/05/19 05:18:34;;;;;;;18.23;13.13;;;;;;;9.44;80.71;100778.56;5057136;28;20206;-67
2021/05/19 05:21:00;;;;;;;14.27;12.07;;;;;;;9.49;80.70;100779.19;5060451;28;20208;-70
2021/05/19 05:23:28;;;;;;;13.97;12.50;;;;;;;9.53;81.10;100773.56;5058006;28;20690;-69
2021/05/19 05:25:54;;;;;;;15.53;12.97;;;;;;;9.58;80.53;100779.50;5057356;28;20584;-71
2021/05/19 05:28:20;;;;;;;15.07;12.90;;;;;;;9.64;80.55;100773.84;5065817;28;20197;-68
2021/05/19 05:30:48;;;;;;;14.40;12.40;;;;;;;9.69;81.02;100778.88;5064280;28;20208;-70
2021/05/19 05:33:14;;;;;;;16.37;12.73;;;;;;;9.73;80.38;100780.41;5076354;28;20609;-70
2021/05/19 05:35:40;;;;;;;13.57;12.03;;;;;;;9.78;80.24;100781.00;5072235;28;20407;-71
2021/05/19 05:38:06;;;;;;;16.77;13.13;;;;;;;9.85;80.63;100776.22;5073074;28;20204;-71
2021/05/19 05:40:33;;;;;;;15.70;12.07;;;;;;;9.94;80.75;100776.50;5072088;28;20607;-71
2021/05/19 05:42:59;;;;;;;15.17;13.27;;;;;;;10.01;80.28;100772.56;5071134;28;20652;-70
2021/05/19 05:45:26;;;;;;;15.17;12.37;;;;;;;10.10;80.00;100784.44;5071889;28;20201;-71
2021/05/19 05:47:52;;;;;;;14.10;12.57;;;;;;;10.20;80.12;100788.31;5068489;28;20288;-71
2021/05/19 05:50:18;;;;;;;12.80;11.40;;;;;;;10.31;79.85;100779.69;5072014;28;20216;-71
2021/05/19 05:52:44;;;;;;;14.47;12.07;;;;;;;10.42;79.66;100783.41;5070667;28;20346;-71
2021/05/19 05:55:11;;;;;;;14.43;11.97;;;;;;;10.56;79.55;100790.56;5071883;28;20232;-71
2021/05/19 05:57:38;;;;;;;13.90;12.10;;;;;;;10.70;79.11;100787.91;5071954;28;20220;-71
2021/05/19 06:00:06;;;;;;;16.80;12.30;;;;;;;10.87;79.20;100792.19;5069685;28;20224;-71
2021/05/19 06:02:33;;;;;;;13.97;11.40;;;;;;;11.04;78.73;100792.00;5061523;28;20496;-71
2021/05/19 06:04:59;;;;;;;12.87;11.47;;;;;;;11.22;78.50;100784.63;5067170;28;20257;-71
2021/05/19 06:07:25;;;;;;;14.00;11.23;;;;;;;11.37;78.11;100790.78;5072138;28;20266;-71
2021/05/19 06:09:52;;;;;;;11.93;10.73;;;;;;;11.51;77.59;100796.09;5072255;28;20227;-71
2021/05/19 06:12:18;;;;;;;11.70;10.47;;;;;;;11.63;76.95;100797.97;5065817;28;20205;-71
2021/05/19 06:14:45;;;;;;;12.60;11.30;;;;;;;11.72;76.28;100810.69;5071474;28;20204;-70
2021/05/19 06:17:13;;;;;;;12.57;10.80;;;;;;;11.75;75.48;100813.16;5071273;28;20255;-71
2021/05/19 06:19:39;;;;;;;12.27;10.90;;;;;;;11.75;75.19;100810.50;5072157;28;20225;-70
2021/05/19 06:22:05;;;;;;;14.73;10.93;;;;;;;11.79;74.96;100812.06;5071125;28;20212;-71
2021/05/19 06:24:31;;;;;;;12.50;11.20;;;;;;;11.83;74.65;100813.53;5071245;28;20243;-71
2021/05/19 06:26:57;;;;;;;14.67;11.70;;;;;;;11.85;74.34;100821.44;5071044;28;20197;-71
2021/05/19 06:29:23;;;;;;;12.77;11.30;;;;;;;11.86;74.07;100814.28;5062243;28;20233;-71
2021/05/19 06:31:50;;;;;;;12.90;11.47;;;;;;;11.88;73.93;100823.06;5071458;28;20658;-71
2021/05/19 06:34:16;;;;;;;11.60;10.40;;;;;;;11.89;73.76;100816.78;5068866;28;20236;-71
2021/05/19 06:36:45;;;;;;;12.47;11.17;;;;;;;11.92;73.21;100822.78;5064104;28;20318;-71
2021/05/19 06:39:11;;;;;;;11.73;10.03;;;;;;;11.99;73.57;100816.06;5071344;28;20225;-71
2021/05/19 06:41:37;;;;;;;13.17;11.47;;;;;;;12.10;73.54;100812.69;5067586;28;20216;-70
2021/05/19 06:44:04;;;;;;;12.03;10.83;;;;;;;12.18;72.98;100814.84;5070320;28;20218;-71
2021/05/19 06:46:30;;;;;;;12.30;11.07;;;;;;;12.26;72.95;100810.69;5071216;28;20201;-71
2021/05/19 06:49:02;;;;;;;12.27;10.40;;;;;;;12.34;72.47;100810.19;5071478;28;20217;-71
2021/05/19 06:51:29;;;;;;;11.90;9.93;;;;;;;12.41;72.71;100817.66;5062281;28;20228;-72
2021/05/19 06:53:55;;;;;;;11.93;10.00;;;;;;;12.52;72.36;100825.81;5070939;28;20203;-71
2021/05/19 06:56:21;;;;;;;11.73;9.70;;;;;;;12.59;71.54;100812.84;5066043;28;20721;-71
2021/05/19 06:58:47;;;;;;;12.60;9.67;;;;;;;12.64;71.25;100816.06;5070740;28;20234;-71
2021/05/19 07:01:13;;;;;;;11.97;10.70;;;;;;;12.70;71.10;100825.50;5069414;28;20208;-71
2021/05/19 07:03:39;;;;;;;11.93;9.93;;;;;;;12.80;70.80;100815.88;5070170;28;20626;-72
2021/05/19 07:06:06;;;;;;;11.50;10.30;;;;;;;12.89;70.65;100817.91;5070856;28;20201;-71
2021/05/19 07:08:32;;;;;;;11.97;9.43;;;;;;;12.93;69.98;100814.03;5069907;28;20229;-70
2021/05/19 07:10:58;;;;;;;12.27;9.83;;;;;;;13.06;69.93;100822.06;5070607;28;20253;-71
2021/05/19 07:13:27;;;;;;;11.40;10.10;;;;;;;13.20;70.24;100817.47;5064558;28;20209;-71
2021/05/19 07:15:54;;;;;;;10.60;9.27;;;;;;;13.39;69.45;100818.81;5071055;28;20232;-72
2021/05/19 07:18:20;;;;;;;10.80;9.30;;;;;;;13.55;68.98;100822.09;5068569;28;20197;-71
2021/05/19 07:20:46;;;;;;;10.27;9.27;;;;;;;13.70;68.52;100818.28;5059573;28;20788;-71
2021/05/19 07:23:14;;;;;;;10.87;9.20;;;;;;;13.79;67.45;100830.97;5054390;28;20690;-71
2021/05/19 07:25:40;;;;;;;9.77;8.77;;;;;;;13.86;67.14;100816.19;5058458;28;20586;-71
2021/05/19 07:28:08;;;;;;;9.97;7.63;;;;;;;13.97;66.30;100825.25;5056110;28;20212;-71
2021/05/19 07:30:34;;;;;;;8.83;7.93;;;;;;;14.11;66.57;100822.38;5061448;28;20267;-71
2021/05/19 07:33:00;;;;;;;9.90;8.23;;;;;;;14.25;65.58;100827.56;5061249;28;20198;-71
2021/05/19 07:35:26;;;;;;;9.13;8.17;;;;;;;14.35;65.12;100831.22;5058343;28;20229;-71
2021/05/19 07:37:52;;;;;;;8.87;7.10;;;;;;;14.37;64.00;100823.94;5061466;28;20649;-71
2021/05/19 07:40:21;;;;;;;8.20;7.40;;;;;;;14.45;64.33;100826.91;5061805;28;20228;-71
2021/05/19 07:45:15;;;;;;;8.40;7.60;;;;;;;14.61;62.73;100828.41;5093465;28;20212;-73
2021/05/19 07:47:41;;;;;;;8.07;6.63;;;;;;;14.71;62.59;100832.06;5095363;28;20195;-73
2021/05/19 07:50:08;;;;;;;6.60;6.00;;;;;;;14.74;61.41;100835.38;5095677;28;20692;-74
2021/05/19 07:52:35;;;;;;;10.43;6.30;;;;;;;14.82;61.53;100826.75;5092757;28;20196;-74
2021/05/19 07:55:03;;;;;;;8.63;6.00;;;;;;;14.95;61.36;100827.50;5078805;28;20265;-73
2021/05/19 07:57:41;;;;;;;6.80;6.03;;;;;;;15.10;60.84;100828.09;5070005;28;20610;-73
2021/05/19 08:00:11;;;;;;;7.10;5.77;;;;;;;15.18;59.58;100823.00;5075262;28;20593;-74
2021/05/19 08:02:37;;;;;;;6.67;5.90;;;;;;;15.21;59.57;100828.13;5072351;28;20667;-73
2021/05/19 08:05:04;;;;;;;6.30;5.70;;;;;;;15.23;59.07;100818.94;5073671;28;20201;-73
2021/05/19 08:07:30;;;;;;;8.33;6.40;;;;;;;15.26;58.98;100818.69;5083664;28;20234;-73
2021/05/19 08:09:56;;;;;;;7.73;6.37;;;;;;;15.37;59.01;100830.44;5083298;28;20205;-73
2021/05/19 08:12:22;;;;;;;7.50;6.80;;;;;;;15.44;58.66;100828.94;5085412;28;20204;-73
2021/05/19 08:14:49;;;;;;;6.63;6.03;;;;;;;15.53;58.57;100828.22;5081006;28;20236;-74
2021/05/19 08:17:17;;;;;;;5.07;4.60;;;;;;;15.60;57.89;100821.38;5084157;28;20231;-73
2021/05/19 08:19:43;;;;;;;6.03;5.43;;;;;;;15.70;57.20;100813.44;5084244;28;20205;-73
2021/05/19 08:22:12;;;;;;;6.10;5.57;;;;;;;15.80;57.05;100823.28;5084507;28;20212;-74
2021/05/19 08:24:38;;;;;;;6.23;5.37;;;;;;;15.92;56.82;100824.13;5081393;28;20221;-73
2021/05/19 08:27:04;;;;;;;6.27;5.63;;;;;;;15.95;56.19;100824.69;5082707;28;20207;-73
2021/05/19 08:29:30;;;;;;;6.43;5.60;;;;;;;15.96;55.95;100831.78;5086076;28;20208;-73
2021/05/19 08:31:58;;;;;;;5.60;4.70;;;;;;;16.04;56.17;100831.16;5085898;28;20592;-73
2021/05/19 08:34:25;;;;;;;6.47;5.07;;;;;;;16.17;55.55;100822.91;5086342;28;20614;-73
2021/05/19 08:36:51;;;;;;;5.50;4.87;;;;;;;16.26;54.98;100824.84;5085027;28;20592;-74
2021/05/19 08:39:17;;;;;;;5.70;4.60;;;;;;;16.39;55.08;100820.13;5082035;28;20216;-73
2021/05/19 08:41:46;;;;;;;4.87;4.37;;;;;;;16.49;53.70;100822.88;5081988;28;20209;-74
2021/05/19 08:44:12;;;;;;;4.30;3.90;;;;;;;16.55;53.80;100819.66;5081905;28;20628;-73
2021/05/19 08:46:43;;;;;;;4.67;3.80;;;;;;;16.65;53.74;100815.25;5081247;28;20205;-74
2021/05/19 08:49:10;;;;;;;3.90;3.27;;;;;;;16.80;52.98;100813.06;5083851;28;20205;-73
2021/05/19 08:51:36;;;;;;;3.10;2.80;;;;;;;16.81;51.15;100820.16;5081967;28;20201;-71
2021/05/19 08:54:05;;;;;;;3.77;2.90;;;;;;;16.75;50.20;100818.84;5084452;28;20220;-73
2021/05/19 08:56:32;;;;;;;3.63;3.13;;;;;;;16.81;50.52;100810.25;5085310;28;20228;-74
2021/05/19 08:58:58;;;;;;;4.83;3.20;;;;;;;16.99;50.55;100810.47;5079304;28;20262;-73
2021/05/19 09:01:25;;;;;;;3.13;2.93;;;;;;;17.20;50.15;100816.66;5080394;28;20200;-73
2021/05/19 09:04:02;;;;;;;4.67;3.37;;;;;;;17.37;49.12;100814.31;5077881;28;20596;-73
2021/05/19 09:06:29;;;;;;;4.17;3.77;;;;;;;17.42;48.38;100809.34;5081600;28;20198;-74
2021/05/19 09:08:55;;;;;;;3.97;3.50;;;;;;;17.41;48.42;100813.03;5074804;28;20207;-73
2021/05/19 09:11:21;;;;;;;4.50;3.97;;;;;;;17.37;48.71;100822.41;5083989;28;20303;-74
2021/05/19 09:13:47;;;;;;;3.83;3.40;;;;;;;17.33;48.99;100822.66;5082864;28;20668;-74
2021/05/19 09:16:25;;;;;;;3.93;3.50;;;;;;;17.28;48.70;100824.91;5080760;28;20225;-74
2021/05/19 09:18:53;;;;;;;4.07;3.20;;;;;;;17.22;48.61;100825.44;5077134;28;20317;-73
2021/05/19 09:21:37;;;;;;;4.77;3.40;;;;;;;17.16;49.18;100820.63;5084088;28;20202;-74
2021/05/19 09:24:07;;;;;;;3.67;3.20;;;;;;;17.11;49.43;100833.63;5077673;28;20227;-73
2021/05/19 09:26:33;;;;;;;3.70;3.30;;;;;;;17.04;50.32;100821.66;5080846;28;20283;-73
2021/05/19 09:29:21;;;;;;;3.40;2.63;;;;;;;16.94;49.36;100828.84;5083625;28;20616;-72
2021/05/19 09:31:52;;;;;;;4.07;3.73;;;;;;;16.82;50.33;100821.88;5085559;28;20201;-73
2021/05/19 09:34:26;;;;;;;3.67;3.33;;;;;;;16.81;51.21;100820.16;5086771;28;20737;-73
2021/05/19 09:36:53;;;;;;;4.30;3.33;;;;;;;16.82;51.05;100816.47;5085051;28;20577;-73
2021/05/19 09:39:19;;;;;;;4.37;3.67;;;;;;;16.80;51.27;100819.31;5088592;28;20212;-73
2021/05/19 09:41:46;;;;;;;4.57;4.17;;;;;;;16.83;51.55;100815.50;5086284;28;20226;-73
2021/05/19 09:44:13;;;;;;;4.03;3.50;;;;;;;16.85;51.56;100817.03;5082175;28;20225;-73
2021/05/19 09:46:46;;;;;;;4.00;3.63;;;;;;;16.91;51.33;100808.44;5081552;28;20206;-73
2021/05/19 09:49:15;;;;;;;3.63;3.33;;;;;;;17.00;51.01;100807.66;5083889;28;20229;-73
2021/05/19 09:51:43;;;;;;;3.83;2.47;;;;;;;17.07;50.20;100810.66;5082391;28;20206;-73
2021/05/19 09:54:28;;;;;;;2.00;1.13;;;;;;;17.15;49.00;100808.16;5081079;28;20284;-73
2021/05/19 09:56:55;;;;;;;1.90;1.17;;;;;;;17.20;47.23;100802.34;5080099;28;20207;-74
2021/05/19 09:59:22;;;;;;;2.37;1.20;;;;;;;17.29;46.70;100810.47;5081980;28;20199;-73
2021/05/19 10:01:49;;;;;;;1.33;1.23;;;;;;;17.42;46.08;100804.81;5082486;28;20210;-74
2021/05/19 10:04:16;;;;;;;1.83;1.40;;;;;;;17.49;45.21;100799.75;5080424;28;20225;-73
2021/05/19 10:06:43;;;;;;;4.20;1.20;;;;;;;17.48;44.63;100804.28;5081270;28;20233;-73
2021/05/19 10:09:09;;;;;;;2.60;1.60;;;;;;;17.52;44.92;100808.41;5074545;28;20227;-74
2021/05/19 10:11:36;;;;;;;1.73;1.63;;;;;;;17.63;45.17;100800.22;5079795;28;20286;-73
2021/05/19 10:14:03;;;;;;;1.70;1.30;;;;;;;17.75;44.69;100805.50;5076140;28;20231;-73
2021/05/19 10:16:31;;;;;;;4.17;1.40;;;;;;;17.88;45.17;100803.41;5083423;28;20633;-73
2021/05/19 10:18:59;;;;;;;2.47;1.23;;;;;;;18.01;44.61;100796.75;5082698;28;20205;-73
2021/05/19 10:21:30;;;;;;;1.47;0.90;;;;;;;18.09;44.01;100798.75;5077752;28;20236;-74
2021/05/19 10:24:03;;;;;;;2.07;1.33;;;;;;;18.14;43.57;100785.66;5075246;28;20226;-74
2021/05/19 10:26:31;;;;;;;1.40;1.30;;;;;;;18.13;43.13;100793.91;5076034;28;20203;-73
2021/05/19 10:28:59;;;;;;;1.97;1.20;;;;;;;18.09;42.98;100787.09;5077031;28;20207;-73
2021/05/19 10:31:28;;;;;;;2.27;1.30;;;;;;;18.07;43.81;100789.09;5084053;28;20766;-74
2021/05/19 10:33:56;;;;;;;1.23;1.00;;;;;;;18.01;43.42;100783.25;5078540;28;20218;-73
2021/05/19 10:36:42;;;;;;;3.47;1.27;;;;;;;17.94;43.59;100779.44;5080769;28;20689;-73
2021/05/19 10:39:25;;;;;;;2.53;1.30;;;;;;;17.94;44.11;100783.97;5072727;28;20232;-73
2021/05/19 10:41:56;;;;;;;3.53;1.07;;;;;;;18.00;44.11;100783.41;5074211;28;20213;-73
2021/05/19 10:44:26;;;;;;;3.30;1.00;;;;;;;18.02;43.80;100773.34;5074067;28;20232;-73
2021/05/19 10:46:56;;;;;;;1.67;1.20;;;;;;;18.06;43.83;100782.00;5079577;28;20632;-74
2021/05/19 10:49:23;;;;;;;2.63;1.00;;;;;;;18.10;43.68;100780.69;5081095;28;20672;-74
2021/05/19 10:52:17;;;;;;;3.57;1.00;;;;;;;18.10;43.27;100778.00;5077611;28;20211;-73
2021/05/19 10:57:49;;;;;;;1.50;0.90;;;;;;;18.30;43.22;100761.69;5075819;28;20273;-73
2021/05/19 11:00:22;;;;;;;2.53;1.10;;;;;;;18.44;42.87;100770.34;5080066;28;20201;-73
2021/05/19 11:03:14;;;;;;;2.47;1.07;;;;;;;18.59;42.53;100756.28;5074570;28;20607;-74
2021/05/19 11:06:04;;;;;;;2.93;1.37;;;;;;;18.72;41.53;100762.19;5071330;28;20233;-74
2021/05/19 11:08:31;;;;;;;3.10;1.17;;;;;;;18.75;42.00;100762.91;5074664;28;20220;-73
2021/05/19 11:11:34;;;;;;;1.40;1.30;;;;;;;18.79;42.81;100765.16;5075295;28;20236;-73
2021/05/19 11:17:14;;;;;;;1.67;1.10;;;;;;;18.86;42.37;100755.47;5074924;28;20244;-73
2021/05/19 11:19:41;;;;;;;3.43;1.60;;;;;;;18.92;42.73;100762.13;5071228;28;20328;-74
2021/05/19 11:22:09;;;;;;;1.83;1.30;;;;;;;18.94;42.41;100765.53;5076413;28;20194;-74
2021/05/19 11:24:49;;;;;;;2.40;1.60;;;;;;;18.94;42.50;100762.84;5079331;28;20927;-74
2021/05/19 11:27:17;;;;;;;3.13;1.63;;;;;;;18.90;41.79;100756.88;5074159;28;20664;-73
2021/05/19 11:29:46;;;;;;;1.97;1.47;;;;;;;18.86;41.98;100765.41;5071346;28;20211;-73
2021/05/19 11:32:19;;;;;;;2.17;1.40;;;;;;;18.87;42.41;100761.72;5072205;28;20242;-74